createdAt,value
2018-05-25T00:00:05.172Z,1009.85
2018-05-25T00:01:05.168Z,1009.86
2018-05-25T00:02:05.150Z,1009.88
2018-05-25T00:03:05.137Z,1009.86
2018-05-25T00:04:05.126Z,1009.86
2018-05-25T00:05:05.116Z,1009.86
2018-05-25T00:06:05.103Z,1009.88
2018-05-25T00:07:05.093Z,1009.86
2018-05-25T00:08:05.084Z,1009.86
2018-05-25T00:09:05.074Z,1009.89
2018-05-25T00:10:05.060Z,1009.84
2018-05-25T00:11:05.048Z,1009.91
2018-05-25T00:12:05.039Z,1009.91
2018-05-25T00:13:05.031Z,1009.89
2018-05-25T00:14:05.014Z,1009.87
2018-05-25T00:15:05.006Z,1009.9
2018-05-25T00:16:04.994Z,1009.91
2018-05-25T00:17:04.982Z,1009.97
2018-05-25T00:18:04.974Z,1009.98
2018-05-25T00:19:04.961Z,1009.92
2018-05-25T00:20:04.951Z,1009.95
2018-05-25T00:21:04.939Z,1009.91
2018-05-25T00:22:04.929Z,1009.89
2018-05-25T00:23:04.916Z,1009.95
2018-05-25T00:24:04.904Z,1009.91
2018-05-25T00:25:04.894Z,1009.89
2018-05-25T00:26:04.881Z,1009.88
2018-05-25T00:27:05.078Z,1009.89
2018-05-25T00:28:04.859Z,1009.9
2018-05-25T00:29:04.848Z,1009.91
2018-05-25T00:30:04.835Z,1009.89
2018-05-25T00:31:04.824Z,1009.91
2018-05-25T00:32:04.814Z,1009.89
2018-05-25T00:33:04.803Z,1009.91
2018-05-25T00:34:04.791Z,1009.89
2018-05-25T00:35:04.782Z,1009.88
2018-05-25T00:36:04.771Z,1009.88
2018-05-25T00:37:04.760Z,1009.85
2018-05-25T00:38:04.751Z,1009.85
2018-05-25T00:39:04.738Z,1009.85
2018-05-25T00:40:04.721Z,1009.85
2018-05-25T00:41:04.716Z,1009.82
2018-05-25T00:42:04.737Z,1009.83
2018-05-25T00:43:04.689Z,1009.84
2018-05-25T00:44:04.682Z,1009.83
2018-05-25T00:45:04.667Z,1009.85
2018-05-25T00:46:04.655Z,1009.82
2018-05-25T00:47:04.647Z,1009.82
2018-05-25T00:48:04.638Z,1009.79
2018-05-25T00:49:04.622Z,1009.79
2018-05-25T00:50:04.609Z,1009.78
2018-05-25T00:51:04.600Z,1009.8
2018-05-25T00:52:04.589Z,1009.8
2018-05-25T00:53:04.577Z,1009.81
2018-05-25T00:54:04.570Z,1009.77
2018-05-25T00:55:04.558Z,1009.76
2018-05-25T00:56:04.542Z,1009.79
2018-05-25T00:57:04.531Z,1009.75
2018-05-25T00:58:04.526Z,1009.76
2018-05-25T00:59:04.509Z,1009.75
2018-05-25T01:00:04.501Z,1009.73
2018-05-25T01:01:04.486Z,1009.76
2018-05-25T01:02:04.474Z,1009.75
2018-05-25T01:03:04.463Z,1009.74
2018-05-25T01:04:04.453Z,1009.73
2018-05-25T01:05:04.443Z,1009.73
2018-05-25T01:06:04.429Z,1009.73
2018-05-25T01:07:04.426Z,1009.72
2018-05-25T01:08:04.407Z,1009.75
2018-05-25T01:09:04.394Z,1009.75
2018-05-25T01:10:04.383Z,1009.71
2018-05-25T01:11:04.373Z,1009.75
2018-05-25T01:12:04.362Z,1009.73
2018-05-25T01:13:04.353Z,1009.73
2018-05-25T01:14:04.338Z,1009.72
2018-05-25T01:15:04.329Z,1009.71
2018-05-25T01:16:04.320Z,1009.7
2018-05-25T01:17:04.306Z,1009.7
2018-05-25T01:18:04.295Z,1009.71
2018-05-25T01:19:04.282Z,1009.67
2018-05-25T01:20:04.268Z,1009.68
2018-05-25T01:21:04.258Z,1009.67
2018-05-25T01:22:04.251Z,1009.71
2018-05-25T01:23:04.238Z,1009.65
2018-05-25T01:24:04.223Z,1009.67
2018-05-25T01:25:04.213Z,1009.65
2018-05-25T01:26:04.204Z,1009.66
2018-05-25T01:27:04.190Z,1009.63
2018-05-25T01:28:04.178Z,1009.61
2018-05-25T01:29:04.168Z,1009.61
2018-05-25T01:30:04.156Z,1009.6
2018-05-25T01:31:04.143Z,1009.62
2018-05-25T01:32:04.134Z,1009.6
2018-05-25T01:33:04.120Z,1009.59
2018-05-25T01:34:04.109Z,1009.6
2018-05-25T01:35:04.098Z,1009.61
2018-05-25T01:36:04.085Z,1009.64
2018-05-25T01:37:04.075Z,1009.64
2018-05-25T01:38:04.063Z,1009.62
2018-05-25T01:39:04.053Z,1009.64
2018-05-25T01:40:04.041Z,1009.62
2018-05-25T01:41:04.034Z,1009.64
2018-05-25T01:42:04.017Z,1009.64
2018-05-25T01:43:04.007Z,1009.65
2018-05-25T01:44:03.998Z,1009.64
2018-05-25T01:45:03.990Z,1009.64
2018-05-25T01:46:03.972Z,1009.58
2018-05-25T01:47:03.961Z,1009.62
2018-05-25T01:48:03.954Z,1009.61
2018-05-25T01:49:03.941Z,1009.62
2018-05-25T01:50:03.929Z,1009.59
2018-05-25T01:51:03.915Z,1009.58
2018-05-25T01:52:03.905Z,1009.57
2018-05-25T01:53:03.893Z,1009.59
2018-05-25T01:54:03.881Z,1009.57
2018-05-25T01:55:03.873Z,1009.55
2018-05-25T01:56:03.861Z,1009.56
2018-05-25T01:57:03.848Z,1009.54
2018-05-25T01:58:03.834Z,1009.54
2018-05-25T01:59:03.824Z,1009.57
2018-05-25T02:00:03.817Z,1009.6
2018-05-25T02:01:03.800Z,1009.55
2018-05-25T02:02:03.790Z,1009.56
2018-05-25T02:03:03.778Z,1009.56
2018-05-25T02:04:03.767Z,1009.54
2018-05-25T02:05:03.754Z,1009.6
2018-05-25T02:06:03.751Z,1009.6
2018-05-25T02:07:03.734Z,1009.58
2018-05-25T02:08:03.722Z,1009.56
2018-05-25T02:09:03.713Z,1009.55
2018-05-25T02:10:03.703Z,1009.58
2018-05-25T02:11:03.687Z,1009.58
2018-05-25T02:12:03.677Z,1009.56
2018-05-25T02:13:03.664Z,1009.57
2018-05-25T02:14:03.662Z,1009.55
2018-05-25T02:15:03.642Z,1009.57
2018-05-25T02:16:03.629Z,1009.59
2018-05-25T02:17:03.618Z,1009.6
2018-05-25T02:18:03.606Z,1009.56
2018-05-25T02:19:03.594Z,1009.6
2018-05-25T02:20:03.583Z,1009.62
2018-05-25T02:21:03.572Z,1009.62
2018-05-25T02:22:03.561Z,1009.59
2018-05-25T02:23:03.548Z,1009.64
2018-05-25T02:24:03.537Z,1009.63
2018-05-25T02:25:03.525Z,1009.58
2018-05-25T02:26:03.518Z,1009.59
2018-05-25T02:27:03.705Z,1009.58
2018-05-25T02:28:03.491Z,1009.57
2018-05-25T02:29:03.483Z,1009.55
2018-05-25T02:30:03.468Z,1009.57
2018-05-25T02:31:03.457Z,1009.52
2018-05-25T02:32:03.445Z,1009.55
2018-05-25T02:33:03.433Z,1009.54
2018-05-25T02:34:03.422Z,1009.5
2018-05-25T02:35:03.414Z,1009.49
2018-05-25T02:36:03.400Z,1009.5
2018-05-25T02:37:03.389Z,1009.47
2018-05-25T02:38:03.380Z,1009.45
2018-05-25T02:39:03.365Z,1009.47
2018-05-25T02:40:03.355Z,1009.44
2018-05-25T02:41:03.342Z,1009.44
2018-05-25T02:42:03.330Z,1009.47
2018-05-25T02:43:03.319Z,1009.42
2018-05-25T02:44:03.310Z,1009.45
2018-05-25T02:45:03.346Z,1009.43
2018-05-25T02:46:03.282Z,1009.44
2018-05-25T02:47:03.273Z,1009.42
2018-05-25T02:48:03.259Z,1009.39
2018-05-25T02:49:03.249Z,1009.39
2018-05-25T02:50:03.286Z,1009.4
2018-05-25T02:51:03.226Z,1009.38
2018-05-25T02:52:03.216Z,1009.38
2018-05-25T02:53:03.205Z,1009.38
2018-05-25T02:54:03.191Z,1009.4
2018-05-25T02:55:03.183Z,1009.37
2018-05-25T02:56:03.166Z,1009.38
2018-05-25T02:57:03.155Z,1009.41
2018-05-25T02:58:03.144Z,1009.42
2018-05-25T02:59:03.131Z,1009.45
2018-05-25T03:00:03.119Z,1009.4
2018-05-25T03:01:03.109Z,1009.42
2018-05-25T03:02:03.095Z,1009.4
2018-05-25T03:03:03.090Z,1009.4
2018-05-25T03:04:03.075Z,1009.43
2018-05-25T03:05:03.064Z,1009.46
2018-05-25T03:06:03.049Z,1009.46
2018-05-25T03:07:03.043Z,1009.46
2018-05-25T03:08:03.027Z,1009.45
2018-05-25T03:09:03.026Z,1009.47
2018-05-25T03:10:03.008Z,1009.47
2018-05-25T03:11:02.999Z,1009.45
2018-05-25T03:12:02.978Z,1009.42
2018-05-25T03:13:02.980Z,1009.46
2018-05-25T03:14:02.955Z,1009.41
2018-05-25T03:15:02.969Z,1009.44
2018-05-25T03:16:02.933Z,1009.44
2018-05-25T03:17:02.965Z,1009.43
2018-05-25T03:18:02.909Z,1009.43
2018-05-25T03:19:02.899Z,1009.39
2018-05-25T03:20:02.885Z,1009.43
2018-05-25T03:21:02.897Z,1009.44
2018-05-25T03:22:02.861Z,1009.42
2018-05-25T03:23:02.872Z,1009.4
2018-05-25T03:24:02.836Z,1009.36
2018-05-25T03:25:02.825Z,1009.39
2018-05-25T03:26:02.856Z,1009.39
2018-05-25T03:27:02.805Z,1009.38
2018-05-25T03:28:02.791Z,1009.4
2018-05-25T03:29:02.778Z,1009.43
2018-05-25T03:30:02.767Z,1009.47
2018-05-25T03:31:02.758Z,1009.48
2018-05-25T03:32:02.743Z,1009.47
2018-05-25T03:33:02.732Z,1009.49
2018-05-25T03:34:02.720Z,1009.49
2018-05-25T03:35:02.710Z,1009.51
2018-05-25T03:36:02.698Z,1009.47
2018-05-25T03:37:02.685Z,1009.47
2018-05-25T03:38:02.676Z,1009.45
2018-05-25T03:39:02.661Z,1009.51
2018-05-25T03:40:02.647Z,1009.48
2018-05-25T03:41:02.646Z,1009.49
2018-05-25T03:42:02.625Z,1009.45
2018-05-25T03:43:02.614Z,1009.5
2018-05-25T03:44:02.604Z,1009.45
2018-05-25T03:45:02.591Z,1009.44
2018-05-25T03:46:02.583Z,1009.45
2018-05-25T03:47:02.569Z,1009.45
2018-05-25T03:48:02.555Z,1009.44
2018-05-25T03:49:02.575Z,1009.39
2018-05-25T03:50:02.531Z,1009.44
2018-05-25T03:51:02.523Z,1009.41
2018-05-25T03:52:02.509Z,1009.4
2018-05-25T03:53:02.497Z,1009.42
2018-05-25T03:54:02.488Z,1009.39
2018-05-25T03:55:02.475Z,1009.41
2018-05-25T03:56:02.462Z,1009.4
2018-05-25T03:57:02.468Z,1009.39
2018-05-25T03:58:02.440Z,1009.38
2018-05-25T03:59:02.429Z,1009.39
2018-05-25T04:00:02.416Z,1009.4
2018-05-25T04:01:02.407Z,1009.36
2018-05-25T04:02:02.392Z,1009.39
2018-05-25T04:03:02.381Z,1009.41
2018-05-25T04:04:02.366Z,1009.39
2018-05-25T04:05:02.354Z,1009.38
2018-05-25T04:06:02.347Z,1009.38
2018-05-25T04:07:02.336Z,1009.4
2018-05-25T04:08:02.320Z,1009.38
2018-05-25T04:09:02.306Z,1009.4
2018-05-25T04:10:02.301Z,1009.4
2018-05-25T04:11:02.288Z,1009.4
2018-05-25T04:12:02.271Z,1009.4
2018-05-25T04:13:02.260Z,1009.4
2018-05-25T04:14:02.248Z,1009.41
2018-05-25T04:15:02.236Z,1009.4
2018-05-25T04:16:02.227Z,1009.4
2018-05-25T04:17:02.216Z,1009.41
2018-05-25T04:18:02.206Z,1009.42
2018-05-25T04:19:02.192Z,1009.41
2018-05-25T04:20:02.177Z,1009.39
2018-05-25T04:21:02.191Z,1009.43
2018-05-25T04:22:02.162Z,1009.45
2018-05-25T04:23:02.141Z,1009.45
2018-05-25T04:24:02.129Z,1009.49
2018-05-25T04:25:02.119Z,1009.53
2018-05-25T04:26:02.110Z,1009.51
2018-05-25T04:27:02.097Z,1009.55
2018-05-25T04:28:02.083Z,1009.53
2018-05-25T04:29:02.076Z,1009.54
2018-05-25T04:30:02.059Z,1009.58
2018-05-25T04:31:02.050Z,1009.59
2018-05-25T04:32:02.063Z,1009.57
2018-05-25T04:33:02.029Z,1009.56
2018-05-25T04:34:02.016Z,1009.6
2018-05-25T04:35:02.003Z,1009.58
2018-05-25T04:36:01.990Z,1009.62
2018-05-25T04:37:01.990Z,1009.61
2018-05-25T04:38:01.967Z,1009.64
2018-05-25T04:39:01.956Z,1009.6
2018-05-25T04:40:01.944Z,1009.66
2018-05-25T04:41:01.932Z,1009.65
2018-05-25T04:42:01.925Z,1009.63
2018-05-25T04:43:01.909Z,1009.64
2018-05-25T04:44:01.896Z,1009.66
2018-05-25T04:45:01.887Z,1009.66
2018-05-25T04:46:01.885Z,1009.65
2018-05-25T04:47:01.865Z,1009.68
2018-05-25T04:48:01.851Z,1009.69
2018-05-25T04:49:01.839Z,1009.67
2018-05-25T04:50:01.828Z,1009.66
2018-05-25T04:51:01.816Z,1009.65
2018-05-25T04:52:01.804Z,1009.68
2018-05-25T04:53:01.798Z,1009.62
2018-05-25T04:54:01.781Z,1009.66
2018-05-25T04:55:01.770Z,1009.65
2018-05-25T04:56:01.762Z,1009.7
2018-05-25T04:57:01.750Z,1009.69
2018-05-25T04:58:01.737Z,1009.74
2018-05-25T04:59:01.724Z,1009.74
2018-05-25T05:00:01.714Z,1009.77
2018-05-25T05:01:01.703Z,1009.83
2018-05-25T05:02:01.692Z,1009.81
2018-05-25T05:03:01.683Z,1009.81
2018-05-25T05:04:01.668Z,1009.79
2018-05-25T05:05:01.697Z,1009.82
2018-05-25T05:06:01.646Z,1009.8
2018-05-25T05:07:01.635Z,1009.78
2018-05-25T05:08:01.622Z,1009.79
2018-05-25T05:09:01.614Z,1009.84
2018-05-25T05:10:01.598Z,1009.83
2018-05-25T05:11:01.593Z,1009.84
2018-05-25T05:12:01.576Z,1009.85
2018-05-25T05:13:01.568Z,1009.81
2018-05-25T05:14:01.554Z,1009.85
2018-05-25T05:15:01.544Z,1009.83
2018-05-25T05:16:01.536Z,1009.86
2018-05-25T05:17:01.522Z,1009.85
2018-05-25T05:18:01.509Z,1009.86
2018-05-25T05:19:01.502Z,1009.81
2018-05-25T05:20:01.487Z,1009.85
2018-05-25T05:21:01.474Z,1009.81
2018-05-25T05:22:01.465Z,1009.88
2018-05-25T05:23:01.501Z,1009.85
2018-05-25T05:24:01.443Z,1009.85
2018-05-25T05:25:01.431Z,1009.82
2018-05-25T05:26:01.420Z,1009.85
2018-05-25T05:27:01.412Z,1009.83
2018-05-25T05:28:01.398Z,1009.84
2018-05-25T05:29:01.386Z,1009.82
2018-05-25T05:30:01.375Z,1009.83
2018-05-25T05:31:01.366Z,1009.83
2018-05-25T05:32:01.358Z,1009.84
2018-05-25T05:33:01.343Z,1009.83
2018-05-25T05:34:01.332Z,1009.83
2018-05-25T05:35:01.323Z,1009.85
2018-05-25T05:36:01.307Z,1009.83
2018-05-25T05:37:01.298Z,1009.83
2018-05-25T05:38:01.289Z,1009.87
2018-05-25T05:39:01.275Z,1009.88
2018-05-25T05:40:01.264Z,1009.92
2018-05-25T05:41:01.254Z,1009.9
2018-05-25T05:42:01.244Z,1009.93
2018-05-25T05:43:01.230Z,1009.94
2018-05-25T05:44:01.292Z,1009.95
2018-05-25T05:45:01.220Z,1009.95
2018-05-25T05:46:01.204Z,1009.96
2018-05-25T05:47:01.190Z,1009.9
2018-05-25T05:48:01.176Z,1009.91
2018-05-25T05:49:01.167Z,1009.89
2018-05-25T05:50:01.153Z,1009.92
2018-05-25T05:51:01.206Z,1009.91
2018-05-25T05:52:01.136Z,1009.88
2018-05-25T05:53:01.122Z,1009.89
2018-05-25T05:54:01.112Z,1009.86
2018-05-25T05:55:01.103Z,1009.84
2018-05-25T05:56:01.091Z,1009.86
2018-05-25T05:57:01.080Z,1009.88
2018-05-25T05:58:01.074Z,1009.87
2018-05-25T05:59:01.070Z,1009.9
2018-05-25T06:00:01.047Z,1009.93
2018-05-25T06:01:01.041Z,1009.95
2018-05-25T06:02:01.025Z,1009.96
2018-05-25T06:03:01.014Z,1009.97
2018-05-25T06:04:01.006Z,1009.97
2018-05-25T06:05:00.993Z,1009.96
2018-05-25T06:06:00.988Z,1009.98
2018-05-25T06:07:00.972Z,1009.97
2018-05-25T06:08:00.963Z,1009.96
2018-05-25T06:09:00.951Z,1010.01
2018-05-25T06:10:00.941Z,1009.98
2018-05-25T06:11:00.932Z,1009.99
2018-05-25T06:12:00.919Z,1009.98
2018-05-25T06:13:00.909Z,1009.97
2018-05-25T06:14:00.900Z,1009.97
2018-05-25T06:15:00.892Z,1009.98
2018-05-25T06:16:00.881Z,1009.96
2018-05-25T06:17:00.871Z,1010.01
2018-05-25T06:18:00.859Z,1010.01
2018-05-25T06:19:00.850Z,1009.99
2018-05-25T06:20:00.867Z,1009.98
2018-05-25T06:21:00.833Z,1009.99
2018-05-25T06:22:00.823Z,1009.98
2018-05-25T06:23:00.810Z,1010.03
2018-05-25T06:24:00.800Z,1009.94
2018-05-25T06:25:00.789Z,1009.92
2018-05-25T06:26:00.780Z,1009.98
2018-05-25T06:27:00.772Z,1009.98
2018-05-25T06:28:00.962Z,1010.01
2018-05-25T06:29:00.750Z,1009.99
2018-05-25T06:30:00.741Z,1010.02
2018-05-25T06:31:00.729Z,1010
2018-05-25T06:32:00.724Z,1009.98
2018-05-25T06:33:00.715Z,1010.02
2018-05-25T06:34:00.701Z,1010.02
2018-05-25T06:35:00.691Z,1010.04
2018-05-25T06:36:00.681Z,1010.03
2018-05-25T06:37:00.671Z,1010.06
2018-05-25T06:38:00.660Z,1010.07
2018-05-25T06:39:00.652Z,1010.1
2018-05-25T06:40:00.641Z,1010.1
2018-05-25T06:41:00.635Z,1010.09
2018-05-25T06:42:00.623Z,1010.12
2018-05-25T06:43:00.616Z,1010.15
2018-05-25T06:44:00.607Z,1010.14
2018-05-25T06:45:00.593Z,1010.17
2018-05-25T06:46:00.584Z,1010.16
2018-05-25T06:47:00.580Z,1010.18
2018-05-25T06:48:00.566Z,1010.15
2018-05-25T06:49:00.561Z,1010.15
2018-05-25T06:50:00.546Z,1010.2
2018-05-25T06:51:00.740Z,1010.12
2018-05-25T06:52:00.531Z,1010.16
2018-05-25T06:53:00.517Z,1010.16
2018-05-25T06:54:00.508Z,1010.16
2018-05-25T06:55:00.501Z,1010.2
2018-05-25T06:56:00.488Z,1010.21
2018-05-25T06:57:00.479Z,1010.22
2018-05-25T06:58:00.498Z,1010.23
2018-05-25T06:59:00.459Z,1010.21
2018-05-25T07:00:00.449Z,1010.24
2018-05-25T07:01:00.444Z,1010.25
2018-05-25T07:02:00.430Z,1010.24
2018-05-25T07:03:00.421Z,1010.24
2018-05-25T07:04:00.461Z,1010.25
2018-05-25T07:05:00.401Z,1010.26
2018-05-25T07:06:00.393Z,1010.26
2018-05-25T07:07:00.386Z,1010.25
2018-05-25T07:08:00.379Z,1010.26
2018-05-25T07:09:00.365Z,1010.26
2018-05-25T07:10:00.355Z,1010.25
2018-05-25T07:11:00.347Z,1010.17
2018-05-25T07:12:00.338Z,1010.19
2018-05-25T07:13:00.331Z,1010.21
2018-05-25T07:14:00.328Z,1010.18
2018-05-25T07:15:00.310Z,1010.19
2018-05-25T07:16:00.301Z,1010.22
2018-05-25T07:17:00.291Z,1010.2
2018-05-25T07:18:00.281Z,1010.22
2018-05-25T07:19:00.271Z,1010.24
2018-05-25T07:20:00.261Z,1010.26
2018-05-25T07:21:00.253Z,1010.28
2018-05-25T07:22:00.242Z,1010.26
2018-05-25T07:23:00.239Z,1010.28
2018-05-25T07:24:00.225Z,1010.31
2018-05-25T07:25:00.215Z,1010.4
2018-05-25T07:26:00.206Z,1010.54
2018-05-25T07:27:00.200Z,1010.58
2018-05-25T07:28:00.187Z,1010.59
2018-05-25T07:29:00.179Z,1010.63
2018-05-25T07:30:00.172Z,1010.59
2018-05-25T07:31:00.168Z,1010.66
2018-05-25T07:32:00.157Z,1010.65
2018-05-25T07:33:00.148Z,1010.64
2018-05-25T07:34:00.143Z,1010.69
2018-05-25T07:35:00.137Z,1010.68
2018-05-25T07:36:00.129Z,1010.68
2018-05-25T07:37:00.125Z,1010.72
2018-05-25T07:38:00.120Z,1010.76
2018-05-25T07:39:00.113Z,1010.74
2018-05-25T07:40:00.110Z,1010.74
2018-05-25T07:41:00.107Z,1010.73
2018-05-25T07:42:00.097Z,1010.74
2018-05-25T07:43:00.094Z,1010.7
2018-05-25T07:44:00.090Z,1010.73
2018-05-25T07:45:00.084Z,1010.72
2018-05-25T07:46:00.088Z,1010.7
2018-05-25T07:47:00.081Z,1010.74
2018-05-25T07:48:00.079Z,1010.75
2018-05-25T07:49:00.074Z,1010.74
2018-05-25T07:50:00.070Z,1010.69
2018-05-25T07:51:00.067Z,1010.74
2018-05-25T07:52:00.063Z,1010.75
2018-05-25T07:53:00.061Z,1010.8
2018-05-25T07:54:00.058Z,1010.77
2018-05-25T07:55:00.066Z,1010.8
2018-05-25T07:56:00.055Z,1010.83
2018-05-25T07:57:00.051Z,1010.82
2018-05-25T07:58:00.048Z,1010.8
2018-05-25T07:59:00.047Z,1010.78
2018-05-25T08:00:00.046Z,1010.81
2018-05-25T08:01:00.047Z,1010.8
2018-05-25T08:02:00.042Z,1010.78
2018-05-25T08:03:00.039Z,1010.78
2018-05-25T08:04:00.040Z,1010.67
2018-05-25T08:05:00.041Z,1010.79
2018-05-25T08:06:00.045Z,1010.79
2018-05-25T08:07:00.037Z,1010.76
2018-05-25T08:08:00.039Z,1010.76
2018-05-25T08:09:00.034Z,1010.77
2018-05-25T08:10:00.038Z,1010.82
2018-05-25T08:11:00.036Z,1010.77
2018-05-25T08:12:00.114Z,1010.8
2018-05-25T08:13:00.037Z,1010.79
2018-05-25T08:14:00.033Z,1010.81
2018-05-25T08:15:00.037Z,1010.82
2018-05-25T08:16:00.042Z,1010.73
2018-05-25T08:17:00.033Z,1010.7
2018-05-25T08:18:00.039Z,1010.87
2018-05-25T08:19:00.036Z,1010.91
2018-05-25T08:20:00.037Z,1010.97
2018-05-25T08:21:00.036Z,1011.01
2018-05-25T08:22:00.104Z,1011.03
2018-05-25T08:23:00.039Z,1010.96
2018-05-25T08:24:00.046Z,1011.07
2018-05-25T08:25:00.037Z,1011.09
2018-05-25T08:26:00.037Z,1011.06
2018-05-25T08:27:00.053Z,1011.1
2018-05-25T08:28:00.240Z,1011.12
2018-05-25T08:29:00.042Z,1011.17
2018-05-25T08:30:00.042Z,1011.15
2018-05-25T08:31:00.049Z,1011.06
2018-05-25T08:32:00.048Z,1011.07
2018-05-25T08:33:00.047Z,1010.7
2018-05-25T08:34:00.047Z,1010.78
2018-05-25T08:35:00.047Z,1010.81
2018-05-25T08:36:00.048Z,1010.67
2018-05-25T08:37:00.055Z,1010.66
2018-05-25T08:38:00.051Z,1010.65
2018-05-25T08:39:00.053Z,1010.6
2018-05-25T08:40:00.052Z,1010.63
2018-05-25T08:41:00.052Z,1010.61
2018-05-25T08:42:00.053Z,1010.65
2018-05-25T08:43:00.055Z,1010.61
2018-05-25T08:44:00.063Z,1010.62
2018-05-25T08:45:00.051Z,1010.65
2018-05-25T08:46:00.050Z,1010.61
2018-05-25T08:47:00.046Z,1010.65
2018-05-25T08:48:00.049Z,1010.65
2018-05-25T08:49:00.043Z,1010.71
2018-05-25T08:50:00.045Z,1010.69
2018-05-25T08:51:00.037Z,1010.72
2018-05-25T08:52:00.040Z,1010.72
2018-05-25T08:53:00.037Z,1010.7
2018-05-25T08:54:00.029Z,1010.76
2018-05-25T08:55:00.027Z,1010.73
2018-05-25T08:56:00.026Z,1010.75
2018-05-25T08:57:00.026Z,1010.75
2018-05-25T08:58:00.019Z,1010.76
2018-05-25T08:59:00.014Z,1010.76
2018-05-25T09:00:00.012Z,1010.75
2018-05-25T09:01:00.009Z,1010.76
2018-05-25T09:02:00.010Z,1010.75
2018-05-25T09:03:00.001Z,1010.76
2018-05-25T09:03:59.996Z,1010.74
2018-05-25T09:04:59.993Z,1010.74
2018-05-25T09:05:59.993Z,1010.73
2018-05-25T09:06:59.990Z,1010.78
2018-05-25T09:07:59.984Z,1010.78
2018-05-25T09:08:59.980Z,1010.74
2018-05-25T09:09:59.975Z,1010.74
2018-05-25T09:10:59.978Z,1010.78
2018-05-25T09:11:59.967Z,1010.77
2018-05-25T09:12:59.964Z,1010.79
2018-05-25T09:13:59.960Z,1010.84
2018-05-25T09:14:59.957Z,1010.89
2018-05-25T09:15:59.954Z,1010.86
2018-05-25T09:16:59.948Z,1010.84
2018-05-25T09:17:59.943Z,1010.83
2018-05-25T09:18:59.938Z,1010.84
2018-05-25T09:19:59.938Z,1010.83
2018-05-25T09:20:59.931Z,1010.83
2018-05-25T09:21:59.928Z,1010.86
2018-05-25T09:22:59.923Z,1010.86
2018-05-25T09:23:59.919Z,1010.84
2018-05-25T09:24:59.920Z,1010.84
2018-05-25T09:25:59.911Z,1010.83
2018-05-25T09:26:59.909Z,1010.82
2018-05-25T09:27:59.902Z,1010.81
2018-05-25T09:28:59.901Z,1010.83
2018-05-25T09:29:59.901Z,1010.77
2018-05-25T09:30:59.897Z,1010.77
2018-05-25T09:31:59.887Z,1010.73
2018-05-25T09:32:59.883Z,1010.74
2018-05-25T09:33:59.879Z,1010.69
2018-05-25T09:34:59.875Z,1010.7
2018-05-25T09:35:59.871Z,1010.64
2018-05-25T09:36:59.866Z,1010.69
2018-05-25T09:37:59.864Z,1010.69
2018-05-25T09:38:59.864Z,1010.71
2018-05-25T09:39:59.861Z,1010.79
2018-05-25T09:40:59.851Z,1010.76
2018-05-25T09:41:59.849Z,1010.65
2018-05-25T09:42:59.846Z,1010.68
2018-05-25T09:43:59.841Z,1010.66
2018-05-25T09:44:59.836Z,1010.66
2018-05-25T09:45:59.834Z,1010.67
2018-05-25T09:46:59.830Z,1010.68
2018-05-25T09:47:59.828Z,1010.7
2018-05-25T09:48:59.822Z,1010.72
2018-05-25T09:49:59.817Z,1010.67
2018-05-25T09:50:59.818Z,1010.7
2018-05-25T09:51:59.815Z,1010.72
2018-05-25T09:52:59.808Z,1010.74
2018-05-25T09:53:59.807Z,1010.76
2018-05-25T09:54:59.801Z,1010.76
2018-05-25T09:55:59.824Z,1010.77
2018-05-25T09:56:59.793Z,1010.77
2018-05-25T09:57:59.790Z,1010.75
2018-05-25T09:58:59.786Z,1010.78
2018-05-25T09:59:59.785Z,1010.76
2018-05-25T10:00:59.789Z,1010.73
2018-05-25T10:01:59.781Z,1010.75
2018-05-25T10:02:59.775Z,1010.78
2018-05-25T10:03:59.773Z,1010.77
2018-05-25T10:04:59.773Z,1010.76
2018-05-25T10:05:59.764Z,1010.7
2018-05-25T10:06:59.762Z,1010.68
2018-05-25T10:07:59.761Z,1010.71
2018-05-25T10:08:59.757Z,1010.74
2018-05-25T10:09:59.756Z,1010.73
2018-05-25T10:10:59.753Z,1010.66
2018-05-25T10:11:59.745Z,1010.69
2018-05-25T10:12:59.743Z,1010.67
2018-05-25T10:13:59.741Z,1010.65
2018-05-25T10:14:59.737Z,1010.68
2018-05-25T10:15:59.737Z,1010.64
2018-05-25T10:16:59.732Z,1010.71
2018-05-25T10:17:59.758Z,1010.68
2018-05-25T10:18:59.728Z,1010.68
2018-05-25T10:19:59.738Z,1010.7
2018-05-25T10:20:59.724Z,1010.67
2018-05-25T10:21:59.717Z,1010.65
2018-05-25T10:22:59.721Z,1010.65
2018-05-25T10:23:59.720Z,1010.69
2018-05-25T10:24:59.709Z,1010.71
2018-05-25T10:25:59.706Z,1010.65
2018-05-25T10:26:59.704Z,1010.63
2018-05-25T10:27:59.902Z,1010.64
2018-05-25T10:28:59.700Z,1010.65
2018-05-25T10:29:59.694Z,1010.65
2018-05-25T10:30:59.692Z,1010.6
2018-05-25T10:31:59.690Z,1010.82
2018-05-25T10:32:59.694Z,1010.58
2018-05-25T10:33:59.688Z,1010.62
2018-05-25T10:34:59.706Z,1010.6
2018-05-25T10:35:59.686Z,1010.61
2018-05-25T10:36:59.675Z,1010.55
2018-05-25T10:37:59.676Z,1010.57
2018-05-25T10:38:59.671Z,1010.61
2018-05-25T10:39:59.667Z,1010.89
2018-05-25T10:40:59.696Z,1010.83
2018-05-25T10:41:59.672Z,1010.79
2018-05-25T10:42:59.661Z,1010.8
2018-05-25T10:43:59.669Z,1010.78
2018-05-25T10:44:59.664Z,1010.62
2018-05-25T10:45:59.662Z,1010.69
2018-05-25T10:46:59.658Z,1010.64
2018-05-25T10:47:59.660Z,1010.66
2018-05-25T10:48:59.660Z,1010.66
2018-05-25T10:49:59.658Z,1010.68
2018-05-25T10:50:59.663Z,1010.59
2018-05-25T10:51:59.658Z,1010.67
2018-05-25T10:52:59.660Z,1010.65
2018-05-25T10:53:59.658Z,1010.67
2018-05-25T10:54:59.659Z,1010.61
2018-05-25T10:55:59.710Z,1010.64
2018-05-25T10:56:59.662Z,1010.63
2018-05-25T10:57:59.657Z,1010.63
2018-05-25T10:58:59.664Z,1010.71
2018-05-25T10:59:59.661Z,1010.69
2018-05-25T11:00:59.660Z,1010.69
2018-05-25T11:01:59.665Z,1010.66
2018-05-25T11:02:59.660Z,1010.64
2018-05-25T11:03:59.667Z,1010.61
2018-05-25T11:04:59.657Z,1010.6
2018-05-25T11:05:59.664Z,1010.58
2018-05-25T11:06:59.661Z,1010.6
2018-05-25T11:07:59.657Z,1010.58
2018-05-25T11:08:59.657Z,1010.59
2018-05-25T11:09:59.709Z,1010.61
2018-05-25T11:10:59.657Z,1010.6
2018-05-25T11:11:59.650Z,1010.64
2018-05-25T11:12:59.652Z,1010.59
2018-05-25T11:13:59.648Z,1010.63
2018-05-25T11:14:59.653Z,1010.65
2018-05-25T11:15:59.647Z,1010.6
2018-05-25T11:16:59.654Z,1010.6
2018-05-25T11:17:59.641Z,1010.59
2018-05-25T11:18:59.638Z,1010.58
2018-05-25T11:19:59.639Z,1010.55
2018-05-25T11:20:59.668Z,1010.57
2018-05-25T11:21:59.630Z,1010.61
2018-05-25T11:22:59.628Z,1010.58
2018-05-25T11:23:59.658Z,1010.59
2018-05-25T11:24:59.622Z,1010.54
2018-05-25T11:25:59.645Z,1010.52
2018-05-25T11:26:59.637Z,1010.49
2018-05-25T11:27:59.611Z,1010.46
2018-05-25T11:28:59.609Z,1010.49
2018-05-25T11:29:59.608Z,1010.47
2018-05-25T11:30:59.603Z,1010.49
2018-05-25T11:31:59.598Z,1010.46
2018-05-25T11:32:59.626Z,1010.49
2018-05-25T11:33:59.592Z,1010.48
2018-05-25T11:34:59.593Z,1010.5
2018-05-25T11:35:59.587Z,1010.52
2018-05-25T11:36:59.594Z,1010.5
2018-05-25T11:37:59.577Z,1010.5
2018-05-25T11:38:59.572Z,1010.53
2018-05-25T11:39:59.573Z,1010.51
2018-05-25T11:40:59.571Z,1010.5
2018-05-25T11:41:59.576Z,1010.43
2018-05-25T11:42:59.555Z,1010.46
2018-05-25T11:43:59.555Z,1010.44
2018-05-25T11:44:59.547Z,1010.41
2018-05-25T11:45:59.544Z,1010.42
2018-05-25T11:46:59.540Z,1010.37
2018-05-25T11:47:59.536Z,1010.35
2018-05-25T11:48:59.534Z,1010.35
2018-05-25T11:49:59.527Z,1010.34
2018-05-25T11:50:59.524Z,1010.32
2018-05-25T11:51:59.527Z,1010.34
2018-05-25T11:52:59.547Z,1010.32
2018-05-25T11:53:59.511Z,1010.34
2018-05-25T11:54:59.508Z,1010.31
2018-05-25T11:55:59.504Z,1010.29
2018-05-25T11:56:59.496Z,1010.26
2018-05-25T11:57:59.496Z,1010.31
2018-05-25T11:58:59.489Z,1010.28
2018-05-25T11:59:59.482Z,1010.27
2018-05-25T12:00:59.477Z,1010.29
2018-05-25T12:01:59.476Z,1010.27
2018-05-25T12:02:59.469Z,1010.29
2018-05-25T12:03:59.489Z,1010.25
2018-05-25T12:04:59.464Z,1010.23
2018-05-25T12:05:59.456Z,1010.28
2018-05-25T12:06:59.453Z,1010.24
2018-05-25T12:07:59.450Z,1010.24